sensor_id;sensor_type;location;lat;lon;timestamp;temperature;humidity
80279;DHT22;70683;52.492;13.416;2023-12-20T00:00:06;9.20;96.20
80279;DHT22;70683;52.492;13.416;2023-12-20T00:02:33;9.20;96.40
80279;DHT22;70683;52.492;13.416;2023-12-20T00:05:00;9.20;96.50
80279;DHT22;70683;52.492;13.416;2023-12-20T00:07:27;9.10;96.50
80279;DHT22;70683;52.492;13.416;2023-12-20T00:09:54;9.20;96.50
80279;DHT22;70683;52.492;13.416;2023-12-20T00:12:20;9.20;96.40
80279;DHT22;70683;52.492;13.416;2023-12-20T00:14:47;9.20;96.40
80279;DHT22;70683;52.492;13.416;2023-12-20T00:17:13;9.20;96.40
80279;DHT22;70683;52.492;13.416;2023-12-20T00:19:40;9.20;96.30
80279;DHT22;70683;52.492;13.416;2023-12-20T00:22:07;9.20;96.40
80279;DHT22;70683;52.492;13.416;2023-12-20T00:24:33;9.10;96.60
80279;DHT22;70683;52.492;13.416;2023-12-20T00:27:00;9.20;96.60
80279;DHT22;70683;52.492;13.416;2023-12-20T00:29:26;9.10;96.70
80279;DHT22;70683;52.492;13.416;2023-12-20T00:31:53;9.10;96.50
80279;DHT22;70683;52.492;13.416;2023-12-20T00:34:20;9.20;96.30
80279;DHT22;70683;52.492;13.416;2023-12-20T00:36:47;9.20;96.20
80279;DHT22;70683;52.492;13.416;2023-12-20T00:39:13;9.20;96.40
80279;DHT22;70683;52.492;13.416;2023-12-20T00:41:40;9.20;96.30
80279;DHT22;70683;52.492;13.416;2023-12-20T00:44:07;9.10;96.40
80279;DHT22;70683;52.492;13.416;2023-12-20T00:46:33;9.10;96.40
80279;DHT22;70683;52.492;13.416;2023-12-20T00:49:00;9.20;96.50
80279;DHT22;70683;52.492;13.416;2023-12-20T00:51:26;9.10;96.30
80279;DHT22;70683;52.492;13.416;2023-12-20T00:53:53;9.10;96.80
80279;DHT22;70683;52.492;13.416;2023-12-20T00:56:21;9.10;96.80
80279;DHT22;70683;52.492;13.416;2023-12-20T00:58:47;9.00;96.70
80279;DHT22;70683;52.492;13.416;2023-12-20T01:01:14;9.00;96.90
80279;DHT22;70683;52.492;13.416;2023-12-20T01:03:41;9.10;96.80
80279;DHT22;70683;52.492;13.416;2023-12-20T01:06:08;9.10;97.00
80279;DHT22;70683;52.492;13.416;2023-12-20T01:08:35;9.10;96.90
80279;DHT22;70683;52.492;13.416;2023-12-20T01:11:04;9.10;96.80
80279;DHT22;70683;52.492;13.416;2023-12-20T01:13:32;9.10;96.80
80279;DHT22;70683;52.492;13.416;2023-12-20T01:15:58;9.20;96.60
80279;DHT22;70683;52.492;13.416;2023-12-20T01:18:25;9.20;96.50
80279;DHT22;70683;52.492;13.416;2023-12-20T01:20:51;9.20;96.40
80279;DHT22;70683;52.492;13.416;2023-12-20T01:23:18;9.30;96.20
80279;DHT22;70683;52.492;13.416;2023-12-20T01:25:45;9.20;96.50
80279;DHT22;70683;52.492;13.416;2023-12-20T01:28:11;9.10;97.00
80279;DHT22;70683;52.492;13.416;2023-12-20T01:30:38;9.20;96.70
80279;DHT22;70683;52.492;13.416;2023-12-20T01:33:04;9.30;96.40
80279;DHT22;70683;52.492;13.416;2023-12-20T01:35:31;9.20;96.70
80279;DHT22;70683;52.492;13.416;2023-12-20T01:37:58;9.10;97.00
80279;DHT22;70683;52.492;13.416;2023-12-20T01:40:24;9.10;97.10
80279;DHT22;70683;52.492;13.416;2023-12-20T01:42:59;9.20;97.00
80279;DHT22;70683;52.492;13.416;2023-12-20T01:45:27;9.20;96.90
80279;DHT22;70683;52.492;13.416;2023-12-20T01:47:55;9.10;97.00
80279;DHT22;70683;52.492;13.416;2023-12-20T01:50:22;9.10;97.20
80279;DHT22;70683;52.492;13.416;2023-12-20T01:52:50;9.10;97.20
80279;DHT22;70683;52.492;13.416;2023-12-20T01:55:19;9.00;97.30
80279;DHT22;70683;52.492;13.416;2023-12-20T01:57:47;9.00;97.30
80279;DHT22;70683;52.492;13.416;2023-12-20T02:00:15;9.10;97.20
80279;DHT22;70683;52.492;13.416;2023-12-20T02:02:42;9.10;97.00
80279;DHT22;70683;52.492;13.416;2023-12-20T02:05:10;9.10;97.10
80279;DHT22;70683;52.492;13.416;2023-12-20T02:07:37;9.10;97.30
80279;DHT22;70683;52.492;13.416;2023-12-20T02:10:04;9.10;97.40
80279;DHT22;70683;52.492;13.416;2023-12-20T02:12:30;9.10;97.50
80279;DHT22;70683;52.492;13.416;2023-12-20T02:14:57;9.10;97.20
80279;DHT22;70683;52.492;13.416;2023-12-20T02:17:24;9.10;97.40
80279;DHT22;70683;52.492;13.416;2023-12-20T02:19:51;9.10;97.20
80279;DHT22;70683;52.492;13.416;2023-12-20T02:22:18;9.10;97.20
80279;DHT22;70683;52.492;13.416;2023-12-20T02:24:44;9.10;97.50
80279;DHT22;70683;52.492;13.416;2023-12-20T02:27:11;9.00;97.20
80279;DHT22;70683;52.492;13.416;2023-12-20T02:29:38;9.00;97.20
80279;DHT22;70683;52.492;13.416;2023-12-20T02:32:05;9.00;97.70
80279;DHT22;70683;52.492;13.416;2023-12-20T02:34:32;9.00;97.60
80279;DHT22;70683;52.492;13.416;2023-12-20T02:36:59;9.00;97.80
80279;DHT22;70683;52.492;13.416;2023-12-20T02:39:25;9.00;97.80
80279;DHT22;70683;52.492;13.416;2023-12-20T02:41:52;9.10;97.80
80279;DHT22;70683;52.492;13.416;2023-12-20T02:44:18;9.10;97.60
80279;DHT22;70683;52.492;13.416;2023-12-20T02:46:45;9.10;97.20
80279;DHT22;70683;52.492;13.416;2023-12-20T02:49:12;9.10;97.20
80279;DHT22;70683;52.492;13.416;2023-12-20T02:51:38;9.20;96.80
80279;DHT22;70683;52.492;13.416;2023-12-20T02:54:05;9.20;96.90
80279;DHT22;70683;52.492;13.416;2023-12-20T02:56:33;9.20;96.60
80279;DHT22;70683;52.492;13.416;2023-12-20T02:59:00;9.10;96.50
80279;DHT22;70683;52.492;13.416;2023-12-20T03:01:27;9.20;96.30
80279;DHT22;70683;52.492;13.416;2023-12-20T03:03:54;9.20;96.40
80279;DHT22;70683;52.492;13.416;2023-12-20T03:06:21;9.20;96.40
80279;DHT22;70683;52.492;13.416;2023-12-20T03:08:47;9.10;96.50
80279;DHT22;70683;52.492;13.416;2023-12-20T03:11:14;9.10;96.40
80279;DHT22;70683;52.492;13.416;2023-12-20T03:13:40;9.10;96.60
80279;DHT22;70683;52.492;13.416;2023-12-20T03:16:09;9.20;96.00
80279;DHT22;70683;52.492;13.416;2023-12-20T03:18:36;9.20;95.10
80279;DHT22;70683;52.492;13.416;2023-12-20T03:21:03;9.10;95.20
80279;DHT22;70683;52.492;13.416;2023-12-20T03:23:30;9.00;95.80
80279;DHT22;70683;52.492;13.416;2023-12-20T03:25:58;9.00;96.40
80279;DHT22;70683;52.492;13.416;2023-12-20T03:28:26;9.00;95.80
80279;DHT22;70683;52.492;13.416;2023-12-20T03:30:53;9.00;95.90
80279;DHT22;70683;52.492;13.416;2023-12-20T03:33:20;9.00;94.70
80279;DHT22;70683;52.492;13.416;2023-12-20T03:35:46;9.00;95.00
80279;DHT22;70683;52.492;13.416;2023-12-20T03:38:13;9.00;94.60
80279;DHT22;70683;52.492;13.416;2023-12-20T03:40:40;8.90;95.20
80279;DHT22;70683;52.492;13.416;2023-12-20T03:43:06;8.90;95.50
80279;DHT22;70683;52.492;13.416;2023-12-20T03:45:33;8.90;94.90
80279;DHT22;70683;52.492;13.416;2023-12-20T03:48:00;8.90;94.90
80279;DHT22;70683;52.492;13.416;2023-12-20T03:50:27;8.90;95.40
80279;DHT22;70683;52.492;13.416;2023-12-20T03:52:54;8.90;95.30
80279;DHT22;70683;52.492;13.416;2023-12-20T03:55:21;8.90;95.10
80279;DHT22;70683;52.492;13.416;2023-12-20T03:57:48;8.80;95.50
80279;DHT22;70683;52.492;13.416;2023-12-20T04:00:15;8.90;95.40
80279;DHT22;70683;52.492;13.416;2023-12-20T04:02:42;8.90;95.50
80279;DHT22;70683;52.492;13.416;2023-12-20T04:05:09;8.90;95.80
80279;DHT22;70683;52.492;13.416;2023-12-20T04:07:36;8.90;94.80
80279;DHT22;70683;52.492;13.416;2023-12-20T04:10:03;9.00;94.40
80279;DHT22;70683;52.492;13.416;2023-12-20T04:12:32;8.90;94.70
80279;DHT22;70683;52.492;13.416;2023-12-20T04:14:59;8.80;94.80
80279;DHT22;70683;52.492;13.416;2023-12-20T04:17:25;8.90;94.00
80279;DHT22;70683;52.492;13.416;2023-12-20T04:19:52;8.80;94.50
80279;DHT22;70683;52.492;13.416;2023-12-20T04:22:19;8.90;94.10
80279;DHT22;70683;52.492;13.416;2023-12-20T04:24:45;8.80;94.60
80279;DHT22;70683;52.492;13.416;2023-12-20T04:27:12;8.80;94.30
80279;DHT22;70683;52.492;13.416;2023-12-20T04:29:38;8.80;94.60
80279;DHT22;70683;52.492;13.416;2023-12-20T04:32:05;8.70;94.30
80279;DHT22;70683;52.492;13.416;2023-12-20T04:34:32;8.70;94.70
80279;DHT22;70683;52.492;13.416;2023-12-20T04:36:59;8.70;95.10
80279;DHT22;70683;52.492;13.416;2023-12-20T04:39:27;8.70;94.90
80279;DHT22;70683;52.492;13.416;2023-12-20T04:41:54;8.70;95.20
80279;DHT22;70683;52.492;13.416;2023-12-20T04:44:20;8.70;94.80
80279;DHT22;70683;52.492;13.416;2023-12-20T04:46:47;8.60;94.80
80279;DHT22;70683;52.492;13.416;2023-12-20T04:49:14;8.60;94.90
80279;DHT22;70683;52.492;13.416;2023-12-20T04:51:40;8.60;94.50
80279;DHT22;70683;52.492;13.416;2023-12-20T04:54:07;8.60;94.40
80279;DHT22;70683;52.492;13.416;2023-12-20T04:56:33;8.70;94.00
80279;DHT22;70683;52.492;13.416;2023-12-20T04:59:00;8.60;94.20
80279;DHT22;70683;52.492;13.416;2023-12-20T05:01:27;8.60;94.00
80279;DHT22;70683;52.492;13.416;2023-12-20T05:03:53;8.50;94.20
80279;DHT22;70683;52.492;13.416;2023-12-20T05:06:20;8.50;94.50
80279;DHT22;70683;52.492;13.416;2023-12-20T05:08:47;8.40;95.10
80279;DHT22;70683;52.492;13.416;2023-12-20T05:11:13;8.40;95.70
80279;DHT22;70683;52.492;13.416;2023-12-20T05:13:41;8.40;95.50
80279;DHT22;70683;52.492;13.416;2023-12-20T05:16:08;8.40;94.80
80279;DHT22;70683;52.492;13.416;2023-12-20T05:18:35;8.50;94.60
80279;DHT22;70683;52.492;13.416;2023-12-20T05:21:02;8.40;94.70
80279;DHT22;70683;52.492;13.416;2023-12-20T05:23:29;8.50;94.60
80279;DHT22;70683;52.492;13.416;2023-12-20T05:25:55;8.50;94.40
80279;DHT22;70683;52.492;13.416;2023-12-20T05:28:22;8.60;94.50
80279;DHT22;70683;52.492;13.416;2023-12-20T05:30:48;8.50;94.30
80279;DHT22;70683;52.492;13.416;2023-12-20T05:33:15;8.40;94.00
80279;DHT22;70683;52.492;13.416;2023-12-20T05:35:42;8.40;94.60
80279;DHT22;70683;52.492;13.416;2023-12-20T05:38:08;8.50;94.00
80279;DHT22;70683;52.492;13.416;2023-12-20T05:40:37;8.40;93.80
80279;DHT22;70683;52.492;13.416;2023-12-20T05:43:03;8.30;94.20
80279;DHT22;70683;52.492;13.416;2023-12-20T05:45:30;8.30;94.10
80279;DHT22;70683;52.492;13.416;2023-12-20T05:47:56;8.30;93.60
80279;DHT22;70683;52.492;13.416;2023-12-20T05:50:24;8.20;93.70
80279;DHT22;70683;52.492;13.416;2023-12-20T05:52:51;8.10;93.80
80279;DHT22;70683;52.492;13.416;2023-12-20T05:55:17;8.10;93.80
80279;DHT22;70683;52.492;13.416;2023-12-20T05:57:44;8.10;93.80
80279;DHT22;70683;52.492;13.416;2023-12-20T06:00:11;8.00;93.70
80279;DHT22;70683;52.492;13.416;2023-12-20T06:02:39;8.00;94.00
80279;DHT22;70683;52.492;13.416;2023-12-20T06:05:06;8.00;93.80
80279;DHT22;70683;52.492;13.416;2023-12-20T06:07:33;8.00;93.80
80279;DHT22;70683;52.492;13.416;2023-12-20T06:09:59;8.00;93.70
80279;DHT22;70683;52.492;13.416;2023-12-20T06:12:26;8.00;93.80
80279;DHT22;70683;52.492;13.416;2023-12-20T06:14:54;8.00;94.20
80279;DHT22;70683;52.492;13.416;2023-12-20T06:17:21;7.90;94.20
80279;DHT22;70683;52.492;13.416;2023-12-20T06:19:48;7.90;94.00
80279;DHT22;70683;52.492;13.416;2023-12-20T06:22:15;8.00;93.70
80279;DHT22;70683;52.492;13.416;2023-12-20T06:24:42;8.10;93.40
80279;DHT22;70683;52.492;13.416;2023-12-20T06:27:09;8.00;93.70
80279;DHT22;70683;52.492;13.416;2023-12-20T06:29:35;7.90;93.90
80279;DHT22;70683;52.492;13.416;2023-12-20T06:32:02;7.80;93.80
80279;DHT22;70683;52.492;13.416;2023-12-20T06:34:29;7.80;94.10
80279;DHT22;70683;52.492;13.416;2023-12-20T06:36:55;7.80;94.00
80279;DHT22;70683;52.492;13.416;2023-12-20T06:39:22;7.90;93.70
80279;DHT22;70683;52.492;13.416;2023-12-20T06:41:49;7.80;94.00
80279;DHT22;70683;52.492;13.416;2023-12-20T06:44:15;7.80;94.10
80279;DHT22;70683;52.492;13.416;2023-12-20T06:46:43;7.80;94.10
80279;DHT22;70683;52.492;13.416;2023-12-20T06:49:09;7.80;94.00
80279;DHT22;70683;52.492;13.416;2023-12-20T06:51:36;7.90;93.60
80279;DHT22;70683;52.492;13.416;2023-12-20T06:54:03;7.90;93.60
80279;DHT22;70683;52.492;13.416;2023-12-20T06:56:30;8.00;93.40
80279;DHT22;70683;52.492;13.416;2023-12-20T06:58:56;8.00;93.60
80279;DHT22;70683;52.492;13.416;2023-12-20T07:01:23;8.00;94.10
80279;DHT22;70683;52.492;13.416;2023-12-20T07:03:49;8.00;93.70
80279;DHT22;70683;52.492;13.416;2023-12-20T07:06:16;8.00;93.70
80279;DHT22;70683;52.492;13.416;2023-12-20T07:08:43;7.90;93.70
80279;DHT22;70683;52.492;13.416;2023-12-20T07:11:09;8.00;93.70
80279;DHT22;70683;52.492;13.416;2023-12-20T07:13:36;8.00;93.40
80279;DHT22;70683;52.492;13.416;2023-12-20T07:16:03;8.10;93.30
80279;DHT22;70683;52.492;13.416;2023-12-20T07:18:30;8.00;93.60
80279;DHT22;70683;52.492;13.416;2023-12-20T07:20:56;8.10;93.00
80279;DHT22;70683;52.492;13.416;2023-12-20T07:23:23;8.10;92.90
80279;DHT22;70683;52.492;13.416;2023-12-20T07:25:49;8.10;93.10
80279;DHT22;70683;52.492;13.416;2023-12-20T07:28:16;8.10;93.00
80279;DHT22;70683;52.492;13.416;2023-12-20T07:30:42;8.10;93.10
80279;DHT22;70683;52.492;13.416;2023-12-20T07:33:09;8.10;93.10
80279;DHT22;70683;52.492;13.416;2023-12-20T07:35:38;8.10;93.10
80279;DHT22;70683;52.492;13.416;2023-12-20T07:38:04;8.10;92.80
80279;DHT22;70683;52.492;13.416;2023-12-20T07:40:32;8.10;92.70
80279;DHT22;70683;52.492;13.416;2023-12-20T07:42:59;8.10;92.70
80279;DHT22;70683;52.492;13.416;2023-12-20T07:45:26;8.10;92.70
80279;DHT22;70683;52.492;13.416;2023-12-20T07:47:52;8.20;92.20
80279;DHT22;70683;52.492;13.416;2023-12-20T07:50:19;8.30;92.50
80279;DHT22;70683;52.492;13.416;2023-12-20T07:52:46;8.30;92.40
80279;DHT22;70683;52.492;13.416;2023-12-20T07:55:12;8.30;92.50
80279;DHT22;70683;52.492;13.416;2023-12-20T07:57:39;8.30;91.70
80279;DHT22;70683;52.492;13.416;2023-12-20T08:00:06;8.40;92.30
80279;DHT22;70683;52.492;13.416;2023-12-20T08:02:33;8.40;93.30
80279;DHT22;70683;52.492;13.416;2023-12-20T08:05:00;8.30;92.90
80279;DHT22;70683;52.492;13.416;2023-12-20T08:07:26;8.30;93.20
80279;DHT22;70683;52.492;13.416;2023-12-20T08:09:53;8.40;92.30
80279;DHT22;70683;52.492;13.416;2023-12-20T08:12:20;8.40;92.00
80279;DHT22;70683;52.492;13.416;2023-12-20T08:14:47;8.50;92.30
80279;DHT22;70683;52.492;13.416;2023-12-20T08:17:14;8.50;91.70
80279;DHT22;70683;52.492;13.416;2023-12-20T08:19:42;8.60;91.20
80279;DHT22;70683;52.492;13.416;2023-12-20T08:22:08;8.60;91.50
80279;DHT22;70683;52.492;13.416;2023-12-20T08:24:35;8.60;92.80
80279;DHT22;70683;52.492;13.416;2023-12-20T08:27:02;8.80;94.10
80279;DHT22;70683;52.492;13.416;2023-12-20T08:29:28;9.00;94.10
80279;DHT22;70683;52.492;13.416;2023-12-20T08:31:55;9.20;91.10
80279;DHT22;70683;52.492;13.416;2023-12-20T08:34:23;9.20;91.90
80279;DHT22;70683;52.492;13.416;2023-12-20T08:36:51;9.30;92.00
80279;DHT22;70683;52.492;13.416;2023-12-20T08:39:18;9.30;90.90
80279;DHT22;70683;52.492;13.416;2023-12-20T08:41:45;9.20;90.20
80279;DHT22;70683;52.492;13.416;2023-12-20T08:44:11;9.10;89.90
80279;DHT22;70683;52.492;13.416;2023-12-20T08:46:39;9.10;90.20
80279;DHT22;70683;52.492;13.416;2023-12-20T08:49:05;9.00;90.60
80279;DHT22;70683;52.492;13.416;2023-12-20T08:51:33;9.00;90.80
80279;DHT22;70683;52.492;13.416;2023-12-20T08:53:59;9.00;90.50
80279;DHT22;70683;52.492;13.416;2023-12-20T08:56:26;9.00;90.00
80279;DHT22;70683;52.492;13.416;2023-12-20T08:58:52;9.10;90.10
80279;DHT22;70683;52.492;13.416;2023-12-20T09:01:19;9.10;89.60
80279;DHT22;70683;52.492;13.416;2023-12-20T09:03:46;9.10;90.20
80279;DHT22;70683;52.492;13.416;2023-12-20T09:06:12;9.00;90.60
80279;DHT22;70683;52.492;13.416;2023-12-20T09:08:45;9.00;90.40
80279;DHT22;70683;52.492;13.416;2023-12-20T09:11:11;9.00;90.40
80279;DHT22;70683;52.492;13.416;2023-12-20T09:13:38;9.10;90.20
80279;DHT22;70683;52.492;13.416;2023-12-20T09:16:05;9.10;90.90
80279;DHT22;70683;52.492;13.416;2023-12-20T09:18:32;9.20;90.50
80279;DHT22;70683;52.492;13.416;2023-12-20T09:20:59;9.10;89.60
80279;DHT22;70683;52.492;13.416;2023-12-20T09:23:25;9.20;90.50
80279;DHT22;70683;52.492;13.416;2023-12-20T09:25:52;9.30;89.60
80279;DHT22;70683;52.492;13.416;2023-12-20T09:28:19;9.40;89.60
80279;DHT22;70683;52.492;13.416;2023-12-20T09:30:45;9.50;89.10
80279;DHT22;70683;52.492;13.416;2023-12-20T09:33:14;9.40;88.10
80279;DHT22;70683;52.492;13.416;2023-12-20T09:35:42;9.40;88.40
80279;DHT22;70683;52.492;13.416;2023-12-20T09:38:10;9.40;89.30
80279;DHT22;70683;52.492;13.416;2023-12-20T09:40:40;9.40;89.80
80279;DHT22;70683;52.492;13.416;2023-12-20T09:43:12;9.30;89.60
80279;DHT22;70683;52.492;13.416;2023-12-20T09:45:40;9.40;90.00
80279;DHT22;70683;52.492;13.416;2023-12-20T09:48:07;9.40;89.00
80279;DHT22;70683;52.492;13.416;2023-12-20T09:50:36;9.50;89.30
80279;DHT22;70683;52.492;13.416;2023-12-20T09:53:03;9.50;88.70
80279;DHT22;70683;52.492;13.416;2023-12-20T09:55:32;9.50;89.60
80279;DHT22;70683;52.492;13.416;2023-12-20T09:58:00;9.40;88.50
80279;DHT22;70683;52.492;13.416;2023-12-20T10:00:26;9.50;88.10
80279;DHT22;70683;52.492;13.416;2023-12-20T10:03:00;9.50;89.60
80279;DHT22;70683;52.492;13.416;2023-12-20T10:05:29;9.50;89.50
80279;DHT22;70683;52.492;13.416;2023-12-20T10:07:56;9.50;87.90
80279;DHT22;70683;52.492;13.416;2023-12-20T10:10:23;9.50;88.20
80279;DHT22;70683;52.492;13.416;2023-12-20T10:13:06;9.50;87.90
80279;DHT22;70683;52.492;13.416;2023-12-20T10:15:35;9.60;86.60
80279;DHT22;70683;52.492;13.416;2023-12-20T10:18:02;9.60;86.20
80279;DHT22;70683;52.492;13.416;2023-12-20T10:20:29;9.50;86.40
80279;DHT22;70683;52.492;13.416;2023-12-20T10:22:57;9.50;86.80
80279;DHT22;70683;52.492;13.416;2023-12-20T10:25:25;9.50;88.00
80279;DHT22;70683;52.492;13.416;2023-12-20T10:28:12;9.50;86.20
80279;DHT22;70683;52.492;13.416;2023-12-20T10:30:39;9.50;86.30
80279;DHT22;70683;52.492;13.416;2023-12-20T10:33:07;9.50;85.70
80279;DHT22;70683;52.492;13.416;2023-12-20T10:35:35;9.60;86.40
80279;DHT22;70683;52.492;13.416;2023-12-20T10:38:05;9.50;85.50
80279;DHT22;70683;52.492;13.416;2023-12-20T10:40:35;9.50;85.70
80279;DHT22;70683;52.492;13.416;2023-12-20T10:43:04;9.50;86.40
80279;DHT22;70683;52.492;13.416;2023-12-20T10:45:31;9.50;86.60
80279;DHT22;70683;52.492;13.416;2023-12-20T10:47:58;9.50;85.40
80279;DHT22;70683;52.492;13.416;2023-12-20T10:50:27;9.60;85.20
80279;DHT22;70683;52.492;13.416;2023-12-20T10:52:56;9.60;85.80
80279;DHT22;70683;52.492;13.416;2023-12-20T10:55:23;9.60;86.60
80279;DHT22;70683;52.492;13.416;2023-12-20T10:57:52;9.70;85.50
80279;DHT22;70683;52.492;13.416;2023-12-20T11:00:21;9.70;84.40
80279;DHT22;70683;52.492;13.416;2023-12-20T11:02:49;9.70;87.30
80279;DHT22;70683;52.492;13.416;2023-12-20T11:05:38;9.80;85.90
80279;DHT22;70683;52.492;13.416;2023-12-20T11:08:00;9.80;84.20
80279;DHT22;70683;52.492;13.416;2023-12-20T11:10:35;9.80;85.80
80279;DHT22;70683;52.492;13.416;2023-12-20T11:13:10;9.80;86.20
80279;DHT22;70683;52.492;13.416;2023-12-20T11:15:37;9.90;83.40
80279;DHT22;70683;52.492;13.416;2023-12-20T11:18:05;9.90;84.40
80279;DHT22;70683;52.492;13.416;2023-12-20T11:20:39;9.80;85.30
80279;DHT22;70683;52.492;13.416;2023-12-20T11:23:08;9.70;86.10
80279;DHT22;70683;52.492;13.416;2023-12-20T11:28:11;9.50;90.00
80279;DHT22;70683;52.492;13.416;2023-12-20T11:30:45;9.40;90.10
80279;DHT22;70683;52.492;13.416;2023-12-20T11:33:11;9.40;89.60
80279;DHT22;70683;52.492;13.416;2023-12-20T11:35:39;9.40;89.30
80279;DHT22;70683;52.492;13.416;2023-12-20T11:38:09;9.40;88.70
80279;DHT22;70683;52.492;13.416;2023-12-20T11:40:37;9.30;89.70
80279;DHT22;70683;52.492;13.416;2023-12-20T11:43:04;9.30;88.90
80279;DHT22;70683;52.492;13.416;2023-12-20T11:45:31;9.20;89.50
80279;DHT22;70683;52.492;13.416;2023-12-20T11:47:58;9.20;89.00
80279;DHT22;70683;52.492;13.416;2023-12-20T11:50:25;9.10;89.30
80279;DHT22;70683;52.492;13.416;2023-12-20T11:52:53;9.10;89.30
80279;DHT22;70683;52.492;13.416;2023-12-20T11:55:23;9.10;89.40
80279;DHT22;70683;52.492;13.416;2023-12-20T11:57:50;9.00;90.00
80279;DHT22;70683;52.492;13.416;2023-12-20T12:00:17;8.90;90.20
80279;DHT22;70683;52.492;13.416;2023-12-20T12:05:19;8.90;90.30
80279;DHT22;70683;52.492;13.416;2023-12-20T12:07:46;9.00;90.30
80279;DHT22;70683;52.492;13.416;2023-12-20T12:10:13;9.00;90.10
80279;DHT22;70683;52.492;13.416;2023-12-20T12:12:39;9.00;90.20
80279;DHT22;70683;52.492;13.416;2023-12-20T12:15:07;9.00;90.00
80279;DHT22;70683;52.492;13.416;2023-12-20T12:17:34;9.10;89.60
80279;DHT22;70683;52.492;13.416;2023-12-20T12:20:04;9.10;89.90
80279;DHT22;70683;52.492;13.416;2023-12-20T12:22:31;9.00;89.50
80279;DHT22;70683;52.492;13.416;2023-12-20T12:25:05;9.10;89.10
80279;DHT22;70683;52.492;13.416;2023-12-20T12:27:28;9.10;89.00
80279;DHT22;70683;52.492;13.416;2023-12-20T12:30:01;9.10;88.70
80279;DHT22;70683;52.492;13.416;2023-12-20T12:32:29;9.10;89.10
80279;DHT22;70683;52.492;13.416;2023-12-20T12:34:55;9.10;89.40
80279;DHT22;70683;52.492;13.416;2023-12-20T12:37:23;9.10;89.40
80279;DHT22;70683;52.492;13.416;2023-12-20T12:39:52;9.00;90.20
80279;DHT22;70683;52.492;13.416;2023-12-20T12:42:19;9.00;90.40
80279;DHT22;70683;52.492;13.416;2023-12-20T12:44:46;8.90;91.10
80279;DHT22;70683;52.492;13.416;2023-12-20T12:47:13;8.80;91.60
80279;DHT22;70683;52.492;13.416;2023-12-20T12:49:40;8.70;91.60
80279;DHT22;70683;52.492;13.416;2023-12-20T12:52:07;8.70;91.90
80279;DHT22;70683;52.492;13.416;2023-12-20T12:54:34;8.60;92.50
80279;DHT22;70683;52.492;13.416;2023-12-20T12:57:00;8.60;92.50
80279;DHT22;70683;52.492;13.416;2023-12-20T12:59:27;8.60;92.30
80279;DHT22;70683;52.492;13.416;2023-12-20T13:01:53;8.50;92.60
80279;DHT22;70683;52.492;13.416;2023-12-20T13:04:20;8.50;93.30
80279;DHT22;70683;52.492;13.416;2023-12-20T13:06:47;8.50;93.10
80279;DHT22;70683;52.492;13.416;2023-12-20T13:09:13;8.50;93.20
80279;DHT22;70683;52.492;13.416;2023-12-20T13:11:41;8.40;93.60
80279;DHT22;70683;52.492;13.416;2023-12-20T13:14:07;8.40;93.70
80279;DHT22;70683;52.492;13.416;2023-12-20T13:16:36;8.40;93.80
80279;DHT22;70683;52.492;13.416;2023-12-20T13:19:04;8.40;93.80
80279;DHT22;70683;52.492;13.416;2023-12-20T13:21:31;8.40;93.80
80279;DHT22;70683;52.492;13.416;2023-12-20T13:23:57;8.50;94.00
80279;DHT22;70683;52.492;13.416;2023-12-20T13:26:24;8.30;94.10
80279;DHT22;70683;52.492;13.416;2023-12-20T13:28:51;8.30;94.50
80279;DHT22;70683;52.492;13.416;2023-12-20T13:31:19;8.20;94.40
80279;DHT22;70683;52.492;13.416;2023-12-20T13:33:46;8.20;94.70
80279;DHT22;70683;52.492;13.416;2023-12-20T13:36:13;8.10;94.90
80279;DHT22;70683;52.492;13.416;2023-12-20T13:38:39;8.00;94.40
80279;DHT22;70683;52.492;13.416;2023-12-20T13:41:06;7.90;94.50
80279;DHT22;70683;52.492;13.416;2023-12-20T13:43:34;7.90;93.70
80279;DHT22;70683;52.492;13.416;2023-12-20T13:46:02;7.90;93.30
80279;DHT22;70683;52.492;13.416;2023-12-20T13:48:28;7.80;92.60
80279;DHT22;70683;52.492;13.416;2023-12-20T13:50:55;7.70;92.90
80279;DHT22;70683;52.492;13.416;2023-12-20T13:53:22;7.80;92.50
80279;DHT22;70683;52.492;13.416;2023-12-20T13:58:51;7.60;92.50
80279;DHT22;70683;52.492;13.416;2023-12-20T14:01:18;7.60;92.80
80279;DHT22;70683;52.492;13.416;2023-12-20T14:03:45;7.50;93.20
80279;DHT22;70683;52.492;13.416;2023-12-20T14:06:13;7.50;93.50
80279;DHT22;70683;52.492;13.416;2023-12-20T14:08:41;7.60;92.80
80279;DHT22;70683;52.492;13.416;2023-12-20T14:11:08;7.50;93.00
80279;DHT22;70683;52.492;13.416;2023-12-20T14:13:35;7.50;93.20
80279;DHT22;70683;52.492;13.416;2023-12-20T14:16:01;7.50;93.60
80279;DHT22;70683;52.492;13.416;2023-12-20T14:18:30;7.40;93.80
80279;DHT22;70683;52.492;13.416;2023-12-20T14:20:56;7.50;93.40
80279;DHT22;70683;52.492;13.416;2023-12-20T14:23:23;7.50;92.50
80279;DHT22;70683;52.492;13.416;2023-12-20T14:25:49;7.50;93.00
80279;DHT22;70683;52.492;13.416;2023-12-20T14:28:16;7.40;92.90
80279;DHT22;70683;52.492;13.416;2023-12-20T14:30:43;7.50;92.60
80279;DHT22;70683;52.492;13.416;2023-12-20T14:33:10;7.50;92.40
80279;DHT22;70683;52.492;13.416;2023-12-20T14:35:37;7.60;92.10
80279;DHT22;70683;52.492;13.416;2023-12-20T14:38:03;7.60;92.10
80279;DHT22;70683;52.492;13.416;2023-12-20T14:40:30;7.50;92.30
80279;DHT22;70683;52.492;13.416;2023-12-20T14:42:57;7.50;92.30
80279;DHT22;70683;52.492;13.416;2023-12-20T14:45:23;7.50;92.30
80279;DHT22;70683;52.492;13.416;2023-12-20T14:47:50;7.60;91.60
80279;DHT22;70683;52.492;13.416;2023-12-20T14:50:17;7.70;91.50
80279;DHT22;70683;52.492;13.416;2023-12-20T14:52:44;7.70;91.90
80279;DHT22;70683;52.492;13.416;2023-12-20T14:55:11;7.60;91.60
80279;DHT22;70683;52.492;13.416;2023-12-20T14:57:39;7.70;91.80
80279;DHT22;70683;52.492;13.416;2023-12-20T15:02:49;7.60;92.10
80279;DHT22;70683;52.492;13.416;2023-12-20T15:05:16;7.60;92.40
80279;DHT22;70683;52.492;13.416;2023-12-20T15:07:43;7.60;92.40
80279;DHT22;70683;52.492;13.416;2023-12-20T15:10:10;7.60;92.20
80279;DHT22;70683;52.492;13.416;2023-12-20T15:12:37;7.70;91.90
80279;DHT22;70683;52.492;13.416;2023-12-20T15:15:04;7.60;92.20
80279;DHT22;70683;52.492;13.416;2023-12-20T15:17:31;7.50;92.60
80279;DHT22;70683;52.492;13.416;2023-12-20T15:19:57;7.50;92.60
80279;DHT22;70683;52.492;13.416;2023-12-20T15:22:24;7.50;92.70
80279;DHT22;70683;52.492;13.416;2023-12-20T15:24:52;7.50;92.90
80279;DHT22;70683;52.492;13.416;2023-12-20T15:27:20;7.50;92.70
80279;DHT22;70683;52.492;13.416;2023-12-20T15:29:47;7.60;92.20
80279;DHT22;70683;52.492;13.416;2023-12-20T15:32:15;7.50;92.50
80279;DHT22;70683;52.492;13.416;2023-12-20T15:34:44;7.50;92.40
80279;DHT22;70683;52.492;13.416;2023-12-20T15:37:12;7.60;92.10
80279;DHT22;70683;52.492;13.416;2023-12-20T15:39:38;7.60;92.20